Time;durP1;ratioP1;P1;durP2;ratioP2;P2;SDS_P1;SDS_P2;PMS_P1;PMS_P2;Temp;Humidity;BMP_temperature;BMP_pressure;BME280_temperature;BME280_humidity;BME280_pressure;Samples;Min_cycle;Max_cycle;Signal;HPM_P1;HPM_P2
2023/05/07 00:00:46;;;;;;;18.05;12.15;;;;;;;12.13;66.89;94865.97;4215309;28;20044;-62
2023/05/07 00:02:48;;;;;;;13.50;11.05;;;;;;;11.92;67.36;94873.53;4215100;28;20055;-62
2023/05/07 00:04:50;;;;;;;15.90;11.55;;;;;;;11.62;68.12;94873.13;4211546;28;20132;-61
2023/05/07 00:06:51;;;;;;;13.88;10.45;;;;;;;11.42;68.28;94865.53;4217632;28;20489;-61
2023/05/07 00:08:53;;;;;;;15.13;9.95;;;;;;;11.31;68.68;94865.00;4225688;28;20566;-61
2023/05/07 00:10:55;;;;;;;12.05;9.63;;;;;;;11.28;69.21;94866.13;4225256;28;20153;-59
2023/05/07 00:12:56;;;;;;;10.95;9.68;;;;;;;11.43;68.90;94867.16;4226676;28;20070;-61
2023/05/07 00:14:58;;;;;;;12.80;10.20;;;;;;;11.70;68.41;94870.47;4218622;28;20048;-61
2023/05/07 00:17:00;;;;;;;13.82;9.85;;;;;;;11.93;67.62;94862.03;4222440;28;20471;-61
2023/05/07 00:19:01;;;;;;;13.23;9.68;;;;;;;12.14;66.72;94857.09;4225493;28;20109;-61
2023/05/07 00:21:03;;;;;;;11.93;8.93;;;;;;;12.29;65.97;94855.44;4226589;28;20096;-60
2023/05/07 00:23:05;;;;;;;10.95;9.10;;;;;;;12.46;65.49;94853.63;4224335;28;20528;-62
2023/05/07 00:25:07;;;;;;;12.27;9.82;;;;;;;12.55;65.05;94849.19;4226331;28;20055;-61
2023/05/07 00:27:08;;;;;;;13.15;9.98;;;;;;;12.62;64.89;94844.88;4219149;28;20482;-61
2023/05/07 00:29:10;;;;;;;12.10;9.35;;;;;;;12.69;64.51;94848.50;4220502;28;20048;-60
2023/05/07 00:31:12;;;;;;;10.93;8.93;;;;;;;12.75;64.41;94846.97;4208880;28;20110;-61
2023/05/07 00:33:13;;;;;;;12.50;9.10;;;;;;;12.82;64.00;94845.34;4216165;28;20534;-63
2023/05/07 00:35:15;;;;;;;13.57;9.10;;;;;;;12.87;63.78;94852.72;4221897;28;20590;-63
2023/05/07 00:37:17;;;;;;;12.05;9.45;;;;;;;12.91;63.70;94851.38;4221978;28;20091;-63
2023/05/07 00:39:18;;;;;;;12.02;9.18;;;;;;;12.90;63.41;94847.09;4214538;28;20488;-62
2023/05/07 00:41:20;;;;;;;12.98;8.85;;;;;;;12.94;64.00;94850.22;4224376;28;20431;-60
2023/05/07 00:43:21;;;;;;;12.18;9.88;;;;;;;12.83;63.71;94852.22;4212678;28;20071;-60
2023/05/07 00:45:27;;;;;;;12.48;9.48;;;;;;;12.73;63.98;94853.41;4216161;28;20075;-63
2023/05/07 00:47:29;;;;;;;10.90;9.57;;;;;;;12.61;64.95;94859.03;4209970;28;20052;-60
2023/05/07 00:49:41;;;;;;;13.52;9.98;;;;;;;12.54;64.82;94863.31;4218311;28;20506;-62
2023/05/07 00:51:43;;;;;;;15.02;9.52;;;;;;;12.44;65.05;94858.22;4221030;28;20043;-61
2023/05/07 00:53:46;;;;;;;12.98;10.30;;;;;;;12.45;64.96;94870.38;4223638;28;20087;-62
2023/05/07 00:55:48;;;;;;;11.43;10.23;;;;;;;12.48;65.06;94864.78;4211188;28;20048;-61
2023/05/07 00:57:50;;;;;;;13.85;10.25;;;;;;;12.59;64.81;94860.19;4220134;28;20046;-62
2023/05/07 00:59:52;;;;;;;13.07;10.07;;;;;;;12.62;64.93;94860.66;4222681;28;20142;-61
2023/05/07 01:01:53;;;;;;;13.90;10.48;;;;;;;12.67;65.01;94858.34;4220653;28;20092;-61
2023/05/07 01:03:56;;;;;;;15.88;11.43;;;;;;;12.74;64.95;94855.06;4226176;28;20051;-61
2023/05/07 01:05:59;;;;;;;14.13;11.65;;;;;;;12.78;64.75;94857.19;4224435;28;20481;-61
2023/05/07 01:08:02;;;;;;;14.98;11.18;;;;;;;12.80;64.80;94856.97;4220266;28;20091;-61
2023/05/07 01:10:05;;;;;;;15.10;11.27;;;;;;;12.81;64.48;94856.81;4224381;28;20130;-60
2023/05/07 01:12:07;;;;;;;15.90;13.13;;;;;;;12.82;64.56;94860.28;4224498;28;20120;-61
2023/05/07 01:14:09;;;;;;;17.42;14.00;;;;;;;12.78;64.99;94859.00;4222051;28;20337;-61
2023/05/07 01:16:11;;;;;;;15.98;13.02;;;;;;;12.77;65.07;94857.34;4208135;28;20044;-60
2023/05/07 01:18:13;;;;;;;13.90;12.50;;;;;;;12.71;64.84;94858.81;4218762;28;20051;-61
2023/05/07 01:20:15;;;;;;;15.55;13.00;;;;;;;12.70;65.12;94863.25;4219214;28;20043;-62
2023/05/07 01:22:47;;;;;;;16.67;12.48;;;;;;;12.67;65.25;94866.25;4217199;28;20047;-59
2023/05/07 01:24:48;;;;;;;14.25;12.13;;;;;;;12.68;65.58;94854.72;4214502;28;20048;-61
2023/05/07 01:26:50;;;;;;;15.50;11.50;;;;;;;12.67;65.59;94857.53;4218914;28;20048;-60
2023/05/07 01:28:52;;;;;;;15.82;12.63;;;;;;;12.66;65.57;94866.41;4224629;28;20469;-62
2023/05/07 01:30:57;;;;;;;16.75;13.57;;;;;;;12.66;65.69;94861.94;4214722;28;20047;-61
2023/05/07 01:33:04;;;;;;;14.52;11.77;;;;;;;12.63;65.81;94861.50;4214972;28;20055;-61
2023/05/07 01:35:07;;;;;;;16.50;11.43;;;;;;;12.62;66.00;94859.84;4224872;28;20611;-62
2023/05/07 01:37:09;;;;;;;16.10;11.43;;;;;;;12.59;65.79;94860.19;4211854;28;20062;-61
2023/05/07 01:39:11;;;;;;;15.05;11.85;;;;;;;12.55;66.18;94857.06;4207020;28;20082;-62
2023/05/07 01:41:13;;;;;;;16.67;11.73;;;;;;;12.51;66.31;94853.13;4210102;28;20048;-62
2023/05/07 01:43:15;;;;;;;17.63;12.32;;;;;;;12.51;66.13;94850.50;4217352;28;20047;-60
2023/05/07 01:45:17;;;;;;;13.63;11.13;;;;;;;12.48;66.02;94853.47;4216647;28;20505;-62
2023/05/07 01:47:19;;;;;;;19.83;12.27;;;;;;;12.49;66.30;94841.94;4214002;28;20064;-62
2023/05/07 01:49:20;;;;;;;12.40;10.48;;;;;;;12.48;65.46;94840.31;4221344;28;20044;-60
2023/05/07 01:51:22;;;;;;;15.40;10.00;;;;;;;12.48;65.27;94840.31;4222721;28;20135;-62
2023/05/07 01:53:27;;;;;;;16.52;9.98;;;;;;;12.47;65.42;94834.22;4217259;28;20048;-61
2023/05/07 01:55:29;;;;;;;13.32;10.48;;;;;;;12.47;65.89;94838.66;4221957;28;20055;-60
2023/05/07 01:57:30;;;;;;;14.15;10.20;;;;;;;12.42;65.78;94822.59;4209121;28;20044;-58
2023/05/07 01:59:32;;;;;;;12.73;9.80;;;;;;;12.39;65.77;94838.69;4211530;28;20036;-62
2023/05/07 02:01:34;;;;;;;15.45;10.00;;;;;;;12.28;65.56;94827.56;4209595;28;20059;-61
2023/05/07 02:03:36;;;;;;;11.63;9.23;;;;;;;11.88;66.19;94831.00;4211046;28;20055;-60
2023/05/07 02:05:38;;;;;;;13.25;9.45;;;;;;;11.33;67.55;94837.59;4212278;28;20108;-60
2023/05/07 02:07:39;;;;;;;11.65;8.93;;;;;;;10.80;69.56;94834.31;4210796;28;20075;-59
2023/05/07 02:09:41;;;;;;;13.38;9.38;;;;;;;10.45;70.44;94828.25;4211158;28;20113;-59
2023/05/07 02:11:42;;;;;;;11.82;9.02;;;;;;;10.51;70.69;94824.19;4213039;28;20139;-60
2023/05/07 02:13:44;;;;;;;11.18;8.85;;;;;;;10.29;70.82;94822.91;4210886;28;20044;-59
2023/05/07 02:15:50;;;;;;;11.77;8.77;;;;;;;10.20;71.30;94823.81;4210914;28;20109;-58
2023/05/07 02:18:08;;;;;;;12.00;9.75;;;;;;;10.20;71.82;94819.41;4210345;28;20052;-61
2023/05/07 02:20:13;;;;;;;12.23;9.32;;;;;;;10.42;71.92;94822.50;4211218;28;20438;-59
2023/05/07 02:22:15;;;;;;;11.93;9.18;;;;;;;10.62;70.34;94825.72;4210073;28;20098;-58
2023/05/07 02:24:17;;;;;;;11.75;8.95;;;;;;;10.82;70.02;94816.66;4212202;28;20047;-60
2023/05/07 02:26:18;;;;;;;11.77;9.38;;;;;;;11.02;69.51;94817.22;4213075;28;20514;-61
2023/05/07 02:28:20;;;;;;;11.23;9.45;;;;;;;11.17;68.47;94816.59;4212171;28;20044;-61
2023/05/07 02:30:22;;;;;;;12.90;8.43;;;;;;;11.29;67.46;94825.78;4213831;28;20134;-60
2023/05/07 02:32:23;;;;;;;12.45;8.82;;;;;;;11.37;67.25;94815.34;4210719;28;20056;-60
2023/05/07 02:34:25;;;;;;;13.25;9.18;;;;;;;11.26;67.53;94816.44;4214966;28;20382;-59
2023/05/07 02:36:26;;;;;;;14.80;8.98;;;;;;;11.22;67.53;94824.81;4215162;28;20186;-59
2023/05/07 02:38:28;;;;;;;12.73;8.85;;;;;;;11.28;67.61;94824.16;4220843;28;20048;-60
2023/05/07 02:40:33;;;;;;;14.55;9.45;;;;;;;11.35;67.51;94819.09;4219087;28;20072;-62
2023/05/07 02:42:35;;;;;;;11.52;9.07;;;;;;;11.43;67.22;94827.00;4226494;28;20214;-59
2023/05/07 02:44:36;;;;;;;14.07;9.07;;;;;;;11.44;66.83;94824.22;4225781;28;20098;-62
2023/05/07 02:46:38;;;;;;;12.73;9.52;;;;;;;11.42;66.86;94825.34;4227379;28;20082;-60
2023/05/07 02:48:40;;;;;;;14.38;10.48;;;;;;;11.16;67.56;94826.25;4226939;28;20517;-61
2023/05/07 02:50:41;;;;;;;15.15;10.45;;;;;;;10.92;68.70;94824.38;4226673;28;20043;-61
2023/05/07 02:52:43;;;;;;;13.23;10.10;;;;;;;10.54;69.49;94826.50;4213138;28;20052;-61
2023/05/07 02:54:45;;;;;;;13.88;10.40;;;;;;;10.34;70.46;94832.94;4221623;28;20048;-60
2023/05/07 02:56:46;;;;;;;17.50;11.30;;;;;;;10.43;70.83;94826.75;4218070;27;20044;-63
2023/05/07 02:58:48;;;;;;;14.65;11.30;;;;;;;10.35;70.88;94835.41;4213690;28;20421;-61
2023/05/07 03:00:50;;;;;;;16.70;10.38;;;;;;;10.48;70.75;94832.38;4212876;28;20138;-63
2023/05/07 03:02:52;;;;;;;18.15;11.95;;;;;;;10.44;70.90;94836.28;4210602;28;20090;-60
2023/05/07 03:04:53;;;;;;;11.80;10.60;;;;;;;10.44;70.17;94838.88;4221977;28;20059;-60
2023/05/07 03:06:57;;;;;;;14.43;11.02;;;;;;;10.38;70.96;94836.88;4214079;28;20466;-58
2023/05/07 03:08:59;;;;;;;13.30;11.45;;;;;;;10.19;71.38;94841.28;4215886;28;20135;-60
2023/05/07 03:11:00;;;;;;;16.30;11.60;;;;;;;10.06;71.78;94843.50;4225867;28;20085;-61
2023/05/07 03:13:02;;;;;;;15.88;11.18;;;;;;;10.17;71.93;94840.63;4217504;28;20056;-61
2023/05/07 03:15:23;;;;;;;15.82;10.77;;;;;;;10.41;71.78;94847.03;4215247;28;20048;-59
2023/05/07 03:17:24;;;;;;;14.68;11.20;;;;;;;10.57;70.79;94844.53;4204700;28;20068;-61
2023/05/07 03:19:26;;;;;;;16.73;11.43;;;;;;;10.69;70.44;94847.72;4213234;28;20052;-59
2023/05/07 03:21:28;;;;;;;14.43;10.50;;;;;;;10.86;69.72;94845.97;4224188;28;20052;-61
2023/05/07 03:23:30;;;;;;;13.27;11.10;;;;;;;11.00;68.98;94845.38;4216555;28;20078;-61
2023/05/07 03:25:32;;;;;;;14.88;10.63;;;;;;;11.13;68.66;94844.13;4221252;28;20109;-61
2023/05/07 03:27:33;;;;;;;17.55;10.40;;;;;;;11.25;68.34;94842.84;4213255;28;20211;-60
2023/05/07 03:29:35;;;;;;;12.57;10.02;;;;;;;11.31;67.86;94850.06;4225087;28;20091;-59
2023/05/07 03:31:37;;;;;;;12.13;10.18;;;;;;;11.40;67.89;94856.16;4211192;28;20527;-60
2023/05/07 03:33:50;;;;;;;13.65;10.35;;;;;;;11.42;67.37;94851.56;4212112;28;20105;-62
2023/05/07 03:35:52;;;;;;;14.23;10.00;;;;;;;11.46;66.94;94856.34;4213897;28;20048;-61
2023/05/07 03:37:54;;;;;;;13.73;10.15;;;;;;;11.52;66.93;94847.00;4221676;28;20722;-61
2023/05/07 03:39:55;;;;;;;12.32;10.02;;;;;;;11.55;66.50;94856.34;4201947;28;20048;-62
2023/05/07 03:41:57;;;;;;;16.75;10.02;;;;;;;11.57;66.72;94859.63;4226484;28;20094;-61
2023/05/07 03:43:59;;;;;;;15.85;10.52;;;;;;;11.60;66.69;94869.81;4215334;28;20044;-60
2023/05/07 03:46:01;;;;;;;15.13;9.45;;;;;;;11.62;66.46;94863.44;4210573;28;20052;-61
2023/05/07 03:48:03;;;;;;;17.75;9.88;;;;;;;11.63;66.20;94867.69;4202626;28;20460;-62
2023/05/07 03:50:05;;;;;;;14.50;10.57;;;;;;;11.67;66.12;94866.38;4226819;28;20135;-60
2023/05/07 03:52:06;;;;;;;14.50;10.05;;;;;;;11.80;65.84;94870.34;4225499;28;20051;-62
2023/05/07 03:54:08;;;;;;;11.82;9.68;;;;;;;11.87;65.73;94869.53;4226336;28;20615;-60
2023/05/07 03:56:09;;;;;;;11.68;9.45;;;;;;;11.96;65.43;94865.16;4225446;28;20051;-60
2023/05/07 03:58:11;;;;;;;11.57;9.27;;;;;;;12.02;65.06;94869.75;4225807;28;20051;-63
2023/05/07 04:00:13;;;;;;;13.63;9.95;;;;;;;12.03;64.69;94867.94;4226165;28;20256;-62
2023/05/07 04:02:15;;;;;;;15.80;10.30;;;;;;;12.01;64.97;94869.91;4212536;28;20153;-61
2023/05/07 04:04:17;;;;;;;13.23;9.85;;;;;;;12.02;64.98;94867.13;4221432;28;20108;-61
2023/05/07 04:06:19;;;;;;;13.05;9.80;;;;;;;12.20;64.81;94882.72;4210398;28;20128;-60
2023/05/07 04:08:20;;;;;;;11.18;9.45;;;;;;;12.22;64.32;94883.38;4223305;28;20135;-58
2023/05/07 04:10:22;;;;;;;13.82;9.00;;;;;;;12.26;64.08;94889.94;4226255;28;20048;-59
2023/05/07 04:12:24;;;;;;;13.57;9.85;;;;;;;12.28;63.72;94892.38;4226107;28;20104;-58
2023/05/07 04:14:25;;;;;;;11.40;8.98;;;;;;;12.17;63.81;94901.41;4227636;28;20055;-61
2023/05/07 04:16:27;;;;;;;14.40;9.80;;;;;;;11.52;65.49;94903.91;4226444;28;20540;-61
2023/05/07 04:18:29;;;;;;;11.52;9.23;;;;;;;11.40;66.59;94898.97;4226594;28;20051;-60
2023/05/07 04:20:34;;;;;;;12.27;9.38;;;;;;;11.52;66.61;94909.16;4227519;28;20131;-60
2023/05/07 04:22:36;;;;;;;14.18;9.48;;;;;;;11.75;65.85;94914.63;4226301;28;20066;-62
2023/05/07 04:24:38;;;;;;;11.82;9.15;;;;;;;11.91;65.25;94909.44;4198937;28;20103;-60
2023/05/07 04:26:40;;;;;;;11.80;9.80;;;;;;;12.09;64.69;94907.50;4227279;28;20044;-60
2023/05/07 04:28:42;;;;;;;11.02;9.57;;;;;;;12.22;63.88;94919.31;4226799;28;20048;-61
2023/05/07 04:30:43;;;;;;;11.13;9.43;;;;;;;12.28;63.70;94914.22;4221303;28;20058;-60
2023/05/07 04:32:45;;;;;;;10.82;9.25;;;;;;;12.34;63.75;94917.19;4222758;28;20390;-60
2023/05/07 04:34:47;;;;;;;15.27;10.38;;;;;;;12.38;63.70;94911.44;4222044;28;20129;-61
2023/05/07 04:36:48;;;;;;;11.60;9.65;;;;;;;12.46;63.72;94921.13;4220847;28;20048;-61
2023/05/07 04:38:50;;;;;;;11.98;9.10;;;;;;;12.46;63.20;94919.31;4217843;28;20154;-61
2023/05/07 04:40:51;;;;;;;16.27;9.50;;;;;;;12.41;63.69;94924.25;4221456;28;20082;-62
2023/05/07 04:42:53;;;;;;;14.77;9.63;;;;;;;12.38;63.89;94929.00;4223768;28;20135;-62
2023/05/07 04:44:55;;;;;;;13.57;9.80;;;;;;;12.47;63.88;94917.50;4226061;28;20043;-59
2023/05/07 04:46:57;;;;;;;13.68;9.95;;;;;;;12.44;63.84;94923.91;4225389;28;20120;-60
2023/05/07 04:48:59;;;;;;;14.73;9.90;;;;;;;12.54;63.72;94925.53;4225822;28;20549;-57
2023/05/07 04:51:00;;;;;;;14.70;9.65;;;;;;;12.63;63.58;94927.19;4225437;28;20435;-59
2023/05/07 04:53:02;;;;;;;14.30;9.65;;;;;;;12.76;63.17;94919.63;4220184;28;20128;-60
2023/05/07 04:55:04;;;;;;;17.10;9.57;;;;;;;12.88;62.73;94915.66;4219033;28;20047;-60
2023/05/07 04:57:06;;;;;;;11.52;9.27;;;;;;;12.91;62.62;94922.38;4216678;28;20079;-61
2023/05/07 04:59:08;;;;;;;10.80;9.55;;;;;;;12.97;62.58;94921.72;4223186;28;20111;-61
2023/05/07 05:01:10;;;;;;;11.95;9.65;;;;;;;13.08;62.48;94912.66;4210934;28;20048;-60
2023/05/07 05:03:12;;;;;;;11.35;8.88;;;;;;;13.14;62.38;94919.03;4210595;28;20048;-61
2023/05/07 05:05:13;;;;;;;11.15;9.35;;;;;;;13.22;62.46;94919.00;4210519;28;20056;-61
2023/05/07 05:07:15;;;;;;;12.50;9.77;;;;;;;13.27;62.00;94916.66;4209323;28;20044;-60
2023/05/07 05:09:17;;;;;;;11.38;9.07;;;;;;;13.26;61.96;94921.13;4218500;28;20047;-62
2023/05/07 05:11:19;;;;;;;14.43;9.57;;;;;;;13.39;61.90;94915.34;4226572;28;20081;-63
2023/05/07 05:13:21;;;;;;;16.55;12.43;;;;;;;13.48;61.78;94914.31;4224122;28;20048;-63
2023/05/07 05:15:23;;;;;;;13.77;10.07;;;;;;;13.59;61.34;94912.28;4225835;28;20049;-61
2023/05/07 05:17:24;;;;;;;12.93;9.68;;;;;;;13.66;61.34;94914.06;4224874;28;20406;-61
2023/05/07 05:19:26;;;;;;;12.52;9.73;;;;;;;13.66;61.44;94908.00;4225908;28;20047;-62
2023/05/07 05:21:27;;;;;;;14.63;10.27;;;;;;;13.59;61.83;94913.09;4223519;28;20039;-62
2023/05/07 05:23:30;;;;;;;12.23;8.48;;;;;;;13.47;63.07;94917.13;4216008;28;20060;-61
2023/05/07 05:25:31;;;;;;;15.55;9.57;;;;;;;13.50;62.54;94920.22;4226780;28;20493;-61
2023/05/07 05:27:33;;;;;;;13.48;9.70;;;;;;;13.38;62.10;94924.25;4225464;28;20061;-61
2023/05/07 05:29:35;;;;;;;12.65;9.40;;;;;;;13.41;62.90;94916.00;4213568;28;20375;-61
2023/05/07 05:31:37;;;;;;;11.70;9.55;;;;;;;13.55;62.59;94913.63;4220423;28;20071;-62
2023/05/07 05:33:38;;;;;;;11.90;9.00;;;;;;;13.72;62.18;94920.44;4224543;28;20134;-60
2023/05/07 05:35:40;;;;;;;15.50;9.80;;;;;;;13.89;61.37;94915.91;4222496;28;20059;-62
2023/05/07 05:37:42;;;;;;;13.13;9.07;;;;;;;14.06;60.85;94920.06;4224474;28;20222;-62
2023/05/07 05:39:44;;;;;;;12.10;9.73;;;;;;;14.20;60.11;94928.25;4223446;28;20059;-61
2023/05/07 05:41:45;;;;;;;12.32;9.32;;;;;;;14.25;59.82;94916.16;4225974;28;20035;-62
2023/05/07 05:43:47;;;;;;;12.35;8.63;;;;;;;14.36;59.34;94917.56;4225174;28;20048;-60
2023/05/07 05:45:48;;;;;;;11.20;9.02;;;;;;;14.40;59.29;94924.13;4224543;28;20089;-63
2023/05/07 05:47:50;;;;;;;16.33;9.38;;;;;;;14.52;59.68;94919.25;4223754;28;20050;-62
2023/05/07 05:49:52;;;;;;;12.60;9.50;;;;;;;14.64;59.42;94922.31;4225629;28;20055;-60
2023/05/07 05:51:53;;;;;;;13.20;9.68;;;;;;;14.69;59.01;94915.50;4224173;28;20040;-59
2023/05/07 05:53:55;;;;;;;14.32;9.10;;;;;;;14.80;58.99;94914.25;4224825;28;20390;-59
2023/05/07 05:55:57;;;;;;;14.65;9.85;;;;;;;14.77;58.58;94917.22;4210606;28;20505;-62
2023/05/07 05:58:00;;;;;;;11.40;8.90;;;;;;;14.49;59.34;94912.50;4218286;28;20055;-61
2023/05/07 06:00:02;;;;;;;12.77;10.35;;;;;;;14.50;59.83;94918.63;4210215;28;20063;-61
2023/05/07 06:02:04;;;;;;;10.98;9.50;;;;;;;14.63;60.01;94918.84;4210678;28;20048;-62
2023/05/07 06:04:05;;;;;;;13.57;9.27;;;;;;;14.59;59.10;94922.84;4212840;28;20135;-61
2023/05/07 06:06:07;;;;;;;12.65;9.55;;;;;;;14.57;59.39;94924.84;4213155;28;20044;-60
2023/05/07 06:08:09;;;;;;;11.75;9.18;;;;;;;14.60;59.01;94926.28;4213103;28;20498;-60
2023/05/07 06:10:10;;;;;;;12.80;9.68;;;;;;;14.64;59.16;94923.13;4213608;28;20117;-62
2023/05/07 06:12:12;;;;;;;12.70;9.13;;;;;;;14.72;58.93;94914.31;4213332;28;20450;-59
2023/05/07 06:16:35;;;;;;;16.48;9.02;;;;;;;14.92;58.73;94912.78;4213959;28;20425;-60
2023/05/07 06:18:37;;;;;;;11.27;9.25;;;;;;;14.96;58.10;94913.25;4213705;28;20044;-59
2023/05/07 06:20:38;;;;;;;10.63;9.07;;;;;;;15.06;57.89;94915.66;4214387;28;20102;-61
2023/05/07 06:22:40;;;;;;;17.40;10.18;;;;;;;15.21;57.86;94915.63;4213708;28;20157;-58
2023/05/07 06:24:41;;;;;;;10.80;9.23;;;;;;;15.32;57.73;94916.00;4215510;28;20048;-60
2023/05/07 06:26:43;;;;;;;9.85;8.32;;;;;;;15.48;57.45;94914.97;4213108;28;20698;-60
2023/05/07 06:28:45;;;;;;;11.63;9.07;;;;;;;15.68;57.19;94912.59;4214834;28;20044;-62
2023/05/07 06:30:47;;;;;;;9.95;7.90;;;;;;;15.86;56.89;94909.56;4214584;28;20056;-62
2023/05/07 06:32:48;;;;;;;9.80;7.97;;;;;;;16.02;56.24;94913.00;4214097;28;20185;-61
2023/05/07 06:34:50;;;;;;;14.57;8.85;;;;;;;16.11;55.72;94907.41;4213748;28;20076;-62
2023/05/07 06:36:52;;;;;;;10.60;8.27;;;;;;;16.23;55.16;94896.31;4219587;28;20075;-62
2023/05/07 06:38:53;;;;;;;12.55;8.45;;;;;;;16.30;54.72;94900.66;4219218;28;20086;-62
2023/05/07 06:40:56;;;;;;;10.00;8.38;;;;;;;16.40;54.54;94902.19;4217773;28;20079;-63
2023/05/07 06:42:58;;;;;;;13.30;9.02;;;;;;;16.45;54.39;94897.94;4225790;28;20052;-61
2023/05/07 06:45:00;;;;;;;11.20;8.25;;;;;;;16.50;53.95;94894.75;4227585;28;20058;-64
2023/05/07 06:47:01;;;;;;;15.30;8.35;;;;;;;16.42;53.59;94890.41;4220428;28;20105;-61
2023/05/07 06:49:03;;;;;;;11.52;7.85;;;;;;;16.45;52.95;94892.66;4227299;28;20550;-62
2023/05/07 06:51:05;;;;;;;10.55;7.80;;;;;;;16.49;52.88;94888.63;4225455;28;20114;-62
2023/05/07 06:53:06;;;;;;;13.90;9.02;;;;;;;16.56;52.70;94886.88;4226450;28;20481;-61
2023/05/07 06:55:09;;;;;;;11.38;8.25;;;;;;;16.64;52.70;94885.91;4221106;28;20131;-62
2023/05/07 06:57:10;;;;;;;10.43;8.25;;;;;;;16.70;52.46;94890.41;4224925;28;20055;-63
2023/05/07 06:59:12;;;;;;;10.27;7.68;;;;;;;16.76;52.23;94884.38;4212660;28;20055;-62
2023/05/07 07:01:13;;;;;;;12.43;8.40;;;;;;;16.70;52.92;94881.69;4212276;28;20062;-62
2023/05/07 07:03:15;;;;;;;12.73;8.45;;;;;;;16.81;52.83;94883.00;4211800;28;20459;-64
2023/05/07 07:05:17;;;;;;;10.32;7.22;;;;;;;16.91;52.24;94886.94;4225410;28;20058;-65
2023/05/07 07:07:18;;;;;;;13.07;7.63;;;;;;;16.99;51.98;94886.78;4211366;28;20235;-62
2023/05/07 07:09:20;;;;;;;9.75;7.53;;;;;;;17.08;51.56;94883.97;4212817;28;20052;-61
2023/05/07 07:11:24;;;;;;;11.18;8.43;;;;;;;16.90;52.29;94884.47;4212992;28;20044;-63
2023/05/07 07:13:26;;;;;;;12.20;7.97;;;;;;;16.79;53.02;94883.97;4213303;28;20663;-63
2023/05/07 07:15:28;;;;;;;9.60;7.15;;;;;;;16.61;52.63;94894.22;4221809;28;20122;-62
2023/05/07 07:17:29;;;;;;;10.25;7.00;;;;;;;16.48;52.77;94883.53;4213507;28;20056;-63
2023/05/07 07:19:31;;;;;;;9.88;7.93;;;;;;;16.31;53.34;94881.16;4213735;28;20106;-64
2023/05/07 07:21:33;;;;;;;11.50;7.57;;;;;;;16.49;53.20;94879.88;4212705;28;20086;-61
2023/05/07 07:23:34;;;;;;;11.57;7.70;;;;;;;16.57;52.26;94877.09;4212576;28;20140;-60
2023/05/07 07:25:36;;;;;;;12.88;7.25;;;;;;;16.46;52.04;94875.78;4212954;28;20048;-60
2023/05/07 07:27:37;;;;;;;11.45;7.38;;;;;;;16.23;52.64;94873.34;4224087;28;20411;-60
2023/05/07 07:29:39;;;;;;;10.32;7.65;;;;;;;16.45;52.88;94882.06;4212726;28;20112;-60
2023/05/07 07:31:41;;;;;;;8.52;7.63;;;;;;;16.69;52.48;94877.38;4211874;28;20097;-61
2023/05/07 07:33:42;;;;;;;10.07;7.22;;;;;;;16.54;52.27;94880.09;4210635;28;20101;-60
2023/05/07 07:35:44;;;;;;;8.90;6.70;;;;;;;16.56;51.91;94876.28;4212929;28;20080;-60
2023/05/07 07:37:49;;;;;;;15.60;5.95;;;;;;;16.81;51.59;94872.41;4220569;28;20044;-61
2023/05/07 07:39:51;;;;;;;10.90;7.22;;;;;;;17.03;51.11;94873.97;4223738;28;20044;-58
2023/05/07 07:41:53;;;;;;;11.60;7.10;;;;;;;17.20;50.97;94880.59;4226526;28;20039;-60
2023/05/07 07:43:55;;;;;;;10.10;6.60;;;;;;;17.48;50.20;94879.72;4224412;28;20483;-60
2023/05/07 07:45:56;;;;;;;9.50;6.53;;;;;;;17.61;49.74;94874.47;4221999;28;20060;-61
2023/05/07 07:47:58;;;;;;;10.15;6.88;;;;;;;17.69;49.35;94880.63;4222963;28;20044;-59
2023/05/07 07:50:00;;;;;;;8.75;6.88;;;;;;;17.80;49.42;94883.50;4225002;28;20043;-61
2023/05/07 07:52:02;;;;;;;9.63;6.63;;;;;;;17.76;48.88;94881.44;4224578;28;20105;-58
2023/05/07 07:54:03;;;;;;;8.98;6.78;;;;;;;17.68;49.02;94886.91;4225329;28;20149;-57
2023/05/07 07:56:05;;;;;;;7.63;6.85;;;;;;;17.74;49.26;94886.13;4223218;28;20048;-61
2023/05/07 07:58:07;;;;;;;13.13;7.40;;;;;;;17.86;49.86;94884.56;4212577;28;20474;-60
2023/05/07 08:00:09;;;;;;;8.43;7.15;;;;;;;18.10;49.58;94883.19;4213541;28;20056;-61
2023/05/07 08:02:11;;;;;;;12.45;7.80;;;;;;;18.28;49.08;94876.50;4211916;28;20044;-61
2023/05/07 08:04:13;;;;;;;9.10;7.30;;;;;;;18.52;48.53;94877.72;4212252;28;20101;-61
2023/05/07 08:06:15;;;;;;;10.15;7.95;;;;;;;18.53;47.92;94876.72;4210496;28;20055;-58
2023/05/07 08:08:16;;;;;;;9.57;7.35;;;;;;;18.53;47.78;94876.72;4211616;28;20105;-61
2023/05/07 08:10:21;;;;;;;9.23;6.70;;;;;;;18.56;47.36;94869.19;4211747;28;20056;-61
2023/05/07 08:12:23;;;;;;;10.98;7.00;;;;;;;18.57;47.58;94878.75;4211756;28;20402;-60
2023/05/07 08:14:25;;;;;;;11.70;7.13;;;;;;;18.64;46.82;94870.78;4210141;28;20047;-62
2023/05/07 08:16:28;;;;;;;8.35;6.28;;;;;;;18.61;45.76;94872.03;4209618;28;20131;-61
2023/05/07 08:18:31;;;;;;;7.80;6.47;;;;;;;18.64;46.27;94876.09;4210406;28;20101;-60
2023/05/07 08:20:33;;;;;;;10.48;6.38;;;;;;;18.88;46.56;94871.22;4211350;28;20474;-60
2023/05/07 08:22:35;;;;;;;9.60;6.85;;;;;;;19.00;46.93;94869.56;4210960;28;20113;-60
2023/05/07 08:24:37;;;;;;;11.23;7.50;;;;;;;18.96;46.17;94871.00;4211526;28;20052;-61
2023/05/07 08:26:39;;;;;;;8.77;7.70;;;;;;;19.05;46.59;94861.78;4227765;28;20073;-60
2023/05/07 08:28:41;;;;;;;10.05;7.05;;;;;;;19.15;46.05;94870.16;4218840;28;20048;-61
2023/05/07 08:30:42;;;;;;;12.32;6.65;;;;;;;19.22;45.23;94862.16;4208827;28;20486;-62
2023/05/07 08:32:44;;;;;;;11.60;6.35;;;;;;;19.23;45.56;94863.81;4208723;28;20044;-59
2023/05/07 08:34:46;;;;;;;9.02;6.63;;;;;;;19.07;45.77;94864.25;4211931;28;20054;-62
2023/05/07 08:36:48;;;;;;;14.80;7.40;;;;;;;19.07;46.07;94859.75;4217947;28;20547;-62
2023/05/07 08:38:49;;;;;;;11.88;7.90;;;;;;;19.23;45.98;94858.50;4227484;28;20078;-62
2023/05/07 08:40:52;;;;;;;11.32;7.43;;;;;;;19.40;45.48;94857.00;4226608;28;20469;-61
2023/05/07 08:42:53;;;;;;;9.48;7.32;;;;;;;19.53;45.30;94853.50;4222491;28;20496;-63
2023/05/07 08:44:57;;;;;;;12.73;6.78;;;;;;;19.67;44.72;94850.78;4226406;28;20066;-60
2023/05/07 08:47:00;;;;;;;9.57;6.18;;;;;;;19.76;44.81;94853.00;4227101;28;20110;-60
2023/05/07 08:49:02;;;;;;;11.30;6.80;;;;;;;19.90;45.07;94863.56;4224901;28;20059;-59
2023/05/07 08:51:04;;;;;;;7.80;6.63;;;;;;;20.02;44.46;94860.00;4223653;28;20043;-60
2023/05/07 08:53:05;;;;;;;7.47;5.25;;;;;;;19.58;42.87;94853.66;4224029;28;20128;-61
2023/05/07 08:55:08;;;;;;;8.00;5.30;;;;;;;19.43;43.19;94850.47;4227132;28;20079;-61
2023/05/07 08:57:10;;;;;;;8.32;5.50;;;;;;;19.62;43.50;94852.22;4225620;28;20094;-59
2023/05/07 08:59:11;;;;;;;9.77;6.70;;;;;;;19.80;42.68;94846.22;4209678;28;20047;-62
2023/05/07 09:01:14;;;;;;;9.43;7.47;;;;;;;19.60;43.31;94848.16;4211242;28;20051;-62
2023/05/07 09:03:16;;;;;;;11.30;6.20;;;;;;;19.82;43.58;94843.34;4210147;28;20055;-62
2023/05/07 09:05:18;;;;;;;7.50;6.25;;;;;;;20.05;42.83;94845.47;4211325;28;20062;-61
2023/05/07 09:07:20;;;;;;;8.35;6.47;;;;;;;20.22;42.73;94840.47;4211207;28;20220;-58
2023/05/07 09:09:22;;;;;;;6.47;5.50;;;;;;;20.22;42.11;94838.63;4212398;28;20075;-60
2023/05/07 09:11:24;;;;;;;8.45;5.60;;;;;;;20.24;42.72;94835.72;4213506;28;20052;-62
2023/05/07 09:13:27;;;;;;;7.40;5.18;;;;;;;20.44;42.17;94827.59;4212936;28;20432;-62
2023/05/07 09:15:29;;;;;;;12.82;6.00;;;;;;;20.61;41.83;94826.06;4202132;28;20043;-60
2023/05/07 09:17:30;;;;;;;9.52;5.30;;;;;;;20.78;41.56;94821.00;4211642;28;20101;-59
2023/05/07 09:19:32;;;;;;;7.90;6.00;;;;;;;20.95;41.05;94821.25;4212943;28;20085;-62
2023/05/07 09:21:35;;;;;;;8.13;5.50;;;;;;;21.11;40.49;94827.03;4214013;28;20781;-62
2023/05/07 09:23:37;;;;;;;7.45;5.53;;;;;;;20.89;39.83;94823.94;4227344;28;20400;-61
2023/05/07 09:25:39;;;;;;;6.75;5.57;;;;;;;20.99;39.90;94814.44;4219041;28;20040;-62
2023/05/07 09:27:41;;;;;;;10.32;5.43;;;;;;;21.14;39.76;94826.56;4211020;28;20052;-59
2023/05/07 09:29:43;;;;;;;7.70;5.43;;;;;;;21.04;40.52;94811.91;4211830;28;20040;-62